createdAt,value
2018-11-14T00:00:30.139Z,6.40
2018-11-14T00:03:00.441Z,5.53
2018-11-14T00:05:29.665Z,7.53
2018-11-14T00:07:58.899Z,7.80
2018-11-14T00:10:28.161Z,4.60
2018-11-14T00:12:57.360Z,4.83
2018-11-14T00:15:26.821Z,5.50
2018-11-14T00:17:56.273Z,7.40
2018-11-14T00:20:25.571Z,11.77
2018-11-14T00:22:54.802Z,7.27
2018-11-14T00:25:24.089Z,7.97
2018-11-14T00:27:53.303Z,16.23
2018-11-14T00:30:24.232Z,6.40
2018-11-14T00:32:53.564Z,10.67
2018-11-14T00:35:22.804Z,11.13
2018-11-14T00:37:52.468Z,8.53
2018-11-14T00:40:22.008Z,6.87
2018-11-14T00:42:51.450Z,13.63
2018-11-14T00:45:21.910Z,7.07
2018-11-14T00:47:51.541Z,6.33
2018-11-14T00:50:21.265Z,5.83
2018-11-14T00:52:50.517Z,8.80
2018-11-14T00:55:22.228Z,11.17
2018-11-14T00:57:52.720Z,7.00
2018-11-14T01:00:25.078Z,9.17
2018-11-14T01:02:54.980Z,13.17
2018-11-14T01:05:24.224Z,15.23
2018-11-14T01:07:53.474Z,5.97
2018-11-14T01:10:23.217Z,10.07
2018-11-14T01:12:52.966Z,9.20
2018-11-14T01:15:23.370Z,7.20
2018-11-14T01:17:52.593Z,10.53
2018-11-14T01:20:22.874Z,9.47
2018-11-14T01:22:52.221Z,11.47
2018-11-14T01:25:21.473Z,8.03
2018-11-14T01:27:50.783Z,7.70
2018-11-14T01:30:22.275Z,8.50
2018-11-14T01:32:52.454Z,10.73
2018-11-14T01:35:21.765Z,10.60
2018-11-14T01:37:51.034Z,9.43
2018-11-14T01:40:22.576Z,8.23
2018-11-14T01:42:56.305Z,8.53
2018-11-14T01:45:25.726Z,12.30
2018-11-14T01:47:54.973Z,10.70
2018-11-14T01:50:24.243Z,10.33
2018-11-14T01:52:53.492Z,6.23
2018-11-14T01:55:22.777Z,16.87
2018-11-14T01:57:52.051Z,12.00
2018-11-14T02:00:24.525Z,9.03
2018-11-14T02:02:54.126Z,10.80
2018-11-14T02:05:23.434Z,6.90
2018-11-14T02:07:52.694Z,10.20
2018-11-14T02:10:22.193Z,13.17
2018-11-14T02:12:51.436Z,12.77
2018-11-14T02:15:22.229Z,14.17
2018-11-14T02:17:51.893Z,8.90
2018-11-14T02:20:21.176Z,9.80
2018-11-14T02:22:50.445Z,7.83
2018-11-14T02:25:19.988Z,14.90
2018-11-14T02:27:49.255Z,7.20
2018-11-14T02:30:22.481Z,8.50
2018-11-14T02:32:51.958Z,9.30
2018-11-14T02:35:21.206Z,13.00
2018-11-14T02:37:50.495Z,7.90
2018-11-14T02:40:21.004Z,8.13
2018-11-14T02:42:50.519Z,8.17
2018-11-14T02:45:19.864Z,7.30
2018-11-14T02:47:49.101Z,9.87
2018-11-14T02:50:18.822Z,6.30
2018-11-14T02:52:48.105Z,10.27
2018-11-14T02:55:17.922Z,12.13
2018-11-14T02:57:47.629Z,8.13
2018-11-14T03:00:19.238Z,6.57
2018-11-14T03:02:48.529Z,10.63
2018-11-14T03:05:18.025Z,7.43
2018-11-14T03:07:47.927Z,9.40
2018-11-14T03:10:19.744Z,13.50
2018-11-14T03:12:49.062Z,8.00
2018-11-14T03:15:20.309Z,8.37
2018-11-14T03:17:49.589Z,7.47
2018-11-14T03:20:20.021Z,7.50
2018-11-14T03:22:49.312Z,10.07
2018-11-14T03:25:18.650Z,11.20
2018-11-14T03:27:48.169Z,10.43
2018-11-14T03:30:18.781Z,13.37
2018-11-14T03:32:48.077Z,11.00
2018-11-14T03:35:17.873Z,12.27
2018-11-14T03:37:47.127Z,10.57
2018-11-14T03:40:17.525Z,9.93
2018-11-14T03:42:46.797Z,8.33
2018-11-14T03:45:16.876Z,8.93
2018-11-14T03:47:46.809Z,10.93
2018-11-14T03:50:16.497Z,7.57
2018-11-14T03:52:45.869Z,10.27
2018-11-14T03:55:15.110Z,18.83
2018-11-14T03:57:44.384Z,8.67
2018-11-14T04:00:15.214Z,8.50
2018-11-14T04:02:45.895Z,10.23
2018-11-14T04:05:15.629Z,8.50
2018-11-14T04:07:44.963Z,17.43
2018-11-14T04:10:15.200Z,12.20
2018-11-14T04:12:44.758Z,8.77
2018-11-14T04:15:15.390Z,8.37
2018-11-14T04:17:44.796Z,9.03
2018-11-14T04:20:15.364Z,9.00
2018-11-14T04:22:45.062Z,12.43
2018-11-14T04:25:16.069Z,8.63
2018-11-14T04:27:46.464Z,9.30
2018-11-14T04:30:19.957Z,12.63
2018-11-14T04:32:49.381Z,13.20
2018-11-14T04:35:19.861Z,15.30
2018-11-14T04:37:49.137Z,12.60
2018-11-14T04:40:20.449Z,13.57
2018-11-14T04:42:49.819Z,13.70
2018-11-14T04:45:22.928Z,18.43
2018-11-14T04:47:52.480Z,13.63
2018-11-14T04:50:23.877Z,14.90
2018-11-14T04:52:53.977Z,12.67
2018-11-14T04:55:24.509Z,9.80
2018-11-14T04:57:53.836Z,11.93
2018-11-14T05:00:24.650Z,15.77
2018-11-14T05:02:54.492Z,13.10
2018-11-14T05:05:24.588Z,19.27
2018-11-14T05:07:53.883Z,17.07
2018-11-14T05:10:24.644Z,24.40
2018-11-14T05:12:54.077Z,21.70
2018-11-14T05:15:24.757Z,16.87
2018-11-14T05:17:54.498Z,26.50
2018-11-14T05:20:24.078Z,21.50
2018-11-14T05:22:53.545Z,26.73
2018-11-14T05:25:23.113Z,27.30
2018-11-14T05:27:52.383Z,25.80
2018-11-14T05:30:22.825Z,34.87
2018-11-14T05:32:52.673Z,17.60
2018-11-14T05:35:22.621Z,19.73
2018-11-14T05:37:51.885Z,24.07
2018-11-14T05:40:22.402Z,22.50
2018-11-14T05:42:52.397Z,18.90
2018-11-14T05:45:27.414Z,18.37
2018-11-14T05:47:56.731Z,21.70
2018-11-14T05:50:25.977Z,24.07
2018-11-14T05:52:55.374Z,24.43
2018-11-14T05:55:24.969Z,14.87
2018-11-14T05:57:54.561Z,14.50
2018-11-14T06:00:32.066Z,28.50
2018-11-14T06:03:02.499Z,21.63
2018-11-14T06:05:31.769Z,22.43
2018-11-14T06:08:01.045Z,22.73
2018-11-14T06:10:30.313Z,24.27
2018-11-14T06:12:59.873Z,25.03
2018-11-14T06:15:29.569Z,19.83
2018-11-14T06:17:59.394Z,13.23
2018-11-14T06:20:28.641Z,33.73
2018-11-14T06:22:58.229Z,19.47
2018-11-14T06:25:33.266Z,22.33
2018-11-14T06:28:03.695Z,17.60
2018-11-14T06:30:33.890Z,21.53
2018-11-14T06:33:04.145Z,15.30
2018-11-14T06:35:33.826Z,27.03
2018-11-14T06:38:03.101Z,14.07
2018-11-14T06:40:32.710Z,17.50
2018-11-14T06:43:01.970Z,25.43
2018-11-14T06:45:32.487Z,29.57
2018-11-14T06:48:02.965Z,14.70
2018-11-14T06:50:32.278Z,25.53
2018-11-14T06:53:03.056Z,23.43
2018-11-14T06:55:32.332Z,20.67
2018-11-14T06:58:02.084Z,27.23
2018-11-14T07:00:32.785Z,18.93
2018-11-14T07:03:03.119Z,42.73
2018-11-14T07:05:32.429Z,22.23
2018-11-14T07:08:01.695Z,31.00
2018-11-14T07:10:32.438Z,21.27
2018-11-14T07:13:06.049Z,31.97
2018-11-14T07:15:36.078Z,35.13
2018-11-14T07:18:06.023Z,44.13
2018-11-14T07:20:37.034Z,38.83
2018-11-14T07:23:06.543Z,57.30
2018-11-14T07:25:36.030Z,36.37
2018-11-14T07:28:05.433Z,30.97
2018-11-14T07:30:35.528Z,56.03
2018-11-14T07:33:07.272Z,48.10
2018-11-14T07:35:36.837Z,36.87
2018-11-14T07:38:39.030Z,28.67
2018-11-14T07:41:10.293Z,31.80
2018-11-14T07:43:40.216Z,52.97
2018-11-14T07:46:10.361Z,19.20
2018-11-14T07:48:39.969Z,47.33
2018-11-14T07:51:09.598Z,40.13
2018-11-14T07:53:38.853Z,38.00
2018-11-14T07:56:08.221Z,41.70
2018-11-14T07:58:37.722Z,38.80
2018-11-14T08:01:07.718Z,30.93
2018-11-14T08:03:37.109Z,33.43
2018-11-14T08:06:06.438Z,34.37
2018-11-14T08:08:35.685Z,33.70
2018-11-14T08:11:05.266Z,35.63
2018-11-14T08:13:35.456Z,41.60
2018-11-14T08:16:05.417Z,25.43
2018-11-14T08:18:34.673Z,29.23
2018-11-14T08:21:04.793Z,35.03
2018-11-14T08:23:34.401Z,33.63
2018-11-14T08:26:04.108Z,22.33
2018-11-14T08:28:33.437Z,27.30
2018-11-14T08:31:02.765Z,44.33
2018-11-14T08:33:32.023Z,39.03
2018-11-14T08:36:01.811Z,23.03
2018-11-14T08:38:33.406Z,28.53
2018-11-14T08:41:04.066Z,26.13
2018-11-14T08:43:33.529Z,30.77
2018-11-14T08:46:02.855Z,17.20
2018-11-14T08:48:33.245Z,20.93
2018-11-14T08:51:02.497Z,24.13
2018-11-14T08:53:33.498Z,23.57
2018-11-14T08:56:02.845Z,24.60
2018-11-14T08:58:34.686Z,31.63
2018-11-14T09:01:04.372Z,28.23
2018-11-14T09:03:33.717Z,27.60
2018-11-14T09:06:02.967Z,23.43
2018-11-14T09:08:35.189Z,21.33
2018-11-14T09:11:09.497Z,23.77
2018-11-14T09:13:38.861Z,15.33
2018-11-14T09:16:08.134Z,15.40
2018-11-14T09:18:46.632Z,13.80
2018-11-14T09:21:16.588Z,24.07
2018-11-14T09:23:45.895Z,21.17
2018-11-14T09:26:15.159Z,24.20
2018-11-14T09:28:45.393Z,21.20
2018-11-14T09:31:14.794Z,22.07
2018-11-14T09:33:46.319Z,24.53
2018-11-14T09:36:16.421Z,25.13
2018-11-14T09:38:47.468Z,30.17
2018-11-14T09:41:16.785Z,21.83
2018-11-14T09:43:46.167Z,25.50
2018-11-14T09:46:15.414Z,28.17
2018-11-14T09:48:44.718Z,26.10
2018-11-14T09:51:16.457Z,19.30
2018-11-14T09:53:48.094Z,25.10
2018-11-14T09:56:18.008Z,29.20
2018-11-14T09:58:48.526Z,22.47
2018-11-14T10:01:18.108Z,34.23
2018-11-14T10:03:47.515Z,29.70
2018-11-14T10:06:17.114Z,21.83
2018-11-14T10:08:46.398Z,25.37
2018-11-14T10:11:15.669Z,27.03
2018-11-14T10:13:44.949Z,25.07
2018-11-14T10:16:14.189Z,25.30
2018-11-14T10:18:48.333Z,32.47
2018-11-14T10:21:17.627Z,36.33
2018-11-14T10:23:46.914Z,37.43
2018-11-14T10:26:17.299Z,44.50
2018-11-14T10:28:46.537Z,41.17
2018-11-14T10:31:15.810Z,44.87
2018-11-14T10:33:45.081Z,46.87
2018-11-14T10:36:14.355Z,37.90
2018-11-14T10:38:43.986Z,39.47
2018-11-14T10:41:13.425Z,35.83
2018-11-14T10:43:42.757Z,42.27
2018-11-14T10:46:12.046Z,34.23
2018-11-14T10:48:41.322Z,37.20
2018-11-14T10:51:10.673Z,34.67
2018-11-14T10:53:39.884Z,37.90
2018-11-14T10:56:09.157Z,34.40
2018-11-14T10:58:38.402Z,32.07
2018-11-14T11:01:13.307Z,31.20
2018-11-14T11:03:47.969Z,30.83
2018-11-14T11:06:48.385Z,32.90
2018-11-14T11:09:22.914Z,28.27
2018-11-14T11:11:57.414Z,28.27
2018-11-14T11:14:32.493Z,24.17
2018-11-14T11:17:07.474Z,27.00
2018-11-14T11:19:36.773Z,25.37
2018-11-14T11:22:06.124Z,25.77
2018-11-14T11:24:35.588Z,25.30
2018-11-14T11:27:05.126Z,29.03
2018-11-14T11:29:34.444Z,24.93
2018-11-14T11:32:03.882Z,24.03
2018-11-14T11:34:34.504Z,31.33
2018-11-14T11:37:03.749Z,22.20
2018-11-14T11:39:33.853Z,22.70
2018-11-14T11:42:03.141Z,27.60
2018-11-14T11:44:32.476Z,23.47
2018-11-14T11:47:02.756Z,22.93
2018-11-14T11:49:32.015Z,27.07
2018-11-14T11:52:01.521Z,26.97
2018-11-14T11:54:30.785Z,27.33
2018-11-14T11:57:00.049Z,26.40
2018-11-14T11:59:29.347Z,31.93
2018-11-14T12:01:58.766Z,26.20
2018-11-14T12:04:28.097Z,26.50
2018-11-14T12:06:57.617Z,25.00
2018-11-14T12:09:26.882Z,25.90
2018-11-14T12:11:56.145Z,25.53
2018-11-14T12:14:25.454Z,24.57
2018-11-14T12:16:54.845Z,23.57
2018-11-14T12:19:24.102Z,25.60
2018-11-14T12:21:53.354Z,26.30
2018-11-14T12:24:22.705Z,18.80
2018-11-14T12:26:51.982Z,21.53
2018-11-14T12:29:21.281Z,19.60
2018-11-14T12:31:50.581Z,18.80
2018-11-14T12:34:19.846Z,29.57
2018-11-14T12:36:49.101Z,25.70
2018-11-14T12:39:18.424Z,29.13
2018-11-14T12:41:48.361Z,22.93
2018-11-14T12:44:17.604Z,22.90
2018-11-14T12:46:47.046Z,20.03
2018-11-14T12:49:16.609Z,22.13
2018-11-14T12:51:45.909Z,21.80
2018-11-14T12:54:15.450Z,21.27
2018-11-14T12:56:44.770Z,25.40
2018-11-14T12:59:14.344Z,24.67
2018-11-14T13:01:43.644Z,20.83
2018-11-14T13:04:12.930Z,22.03
2018-11-14T13:06:42.258Z,20.33
2018-11-14T13:09:12.710Z,23.23
2018-11-14T13:11:42.066Z,25.40
2018-11-14T13:14:11.326Z,21.13
2018-11-14T13:16:40.593Z,25.67
2018-11-14T13:19:09.883Z,21.67
2018-11-14T13:21:39.146Z,21.50
2018-11-14T13:24:08.429Z,19.50
2018-11-14T13:26:37.701Z,17.63
2018-11-14T13:29:07.173Z,21.37
2018-11-14T13:31:36.537Z,21.83
2018-11-14T13:34:05.958Z,19.13
2018-11-14T13:36:35.338Z,21.30
2018-11-14T13:39:06.738Z,25.03
2018-11-14T13:41:36.102Z,21.23
2018-11-14T13:44:05.645Z,24.67
2018-11-14T13:46:35.469Z,22.70
2018-11-14T13:49:05.483Z,19.80
2018-11-14T13:51:34.658Z,26.03
2018-11-14T13:54:04.241Z,21.77
2018-11-14T13:56:33.530Z,24.80
2018-11-14T13:59:02.823Z,24.97
2018-11-14T14:01:32.286Z,28.00
2018-11-14T14:04:01.552Z,41.50
2018-11-14T14:06:30.812Z,21.43
2018-11-14T14:09:00.334Z,24.33
2018-11-14T14:11:29.665Z,24.90
2018-11-14T14:14:04.718Z,18.17
2018-11-14T14:16:35.871Z,22.20
2018-11-14T14:19:06.028Z,19.70
2018-11-14T14:21:36.654Z,21.30
2018-11-14T14:24:09.887Z,20.57
2018-11-14T14:26:39.746Z,17.47
2018-11-14T14:29:09.534Z,17.93
2018-11-14T14:31:39.265Z,22.43
2018-11-14T14:34:08.494Z,16.97
2018-11-14T14:36:37.741Z,17.23
2018-11-14T14:39:09.044Z,17.30
2018-11-14T14:41:42.929Z,17.47
2018-11-14T14:44:14.141Z,19.63
2018-11-14T14:46:43.753Z,16.20
2018-11-14T14:49:13.084Z,14.13
2018-11-14T14:51:43.433Z,16.00
2018-11-14T14:54:13.189Z,17.30
2018-11-14T14:56:42.525Z,14.40
2018-11-14T14:59:11.841Z,16.37
2018-11-14T15:01:42.000Z,13.63
2018-11-14T15:04:22.717Z,13.03
2018-11-14T15:06:52.060Z,13.30
2018-11-14T15:09:21.363Z,14.90
2018-11-14T15:11:51.073Z,15.53
2018-11-14T15:14:20.489Z,14.60
2018-11-14T15:16:51.293Z,19.73
2018-11-14T15:19:20.725Z,24.93
2018-11-14T15:21:50.177Z,23.07
2018-11-14T15:24:19.471Z,16.40
2018-11-14T15:26:48.947Z,16.53
2018-11-14T15:29:18.222Z,17.47
2018-11-14T15:31:47.549Z,18.23
2018-11-14T15:34:16.957Z,19.57
2018-11-14T15:36:46.211Z,14.77
2018-11-14T15:39:15.461Z,19.60
2018-11-14T15:41:44.930Z,17.57
2018-11-14T15:44:14.641Z,16.90
2018-11-14T15:46:43.929Z,18.23
2018-11-14T15:49:13.249Z,17.87
2018-11-14T15:51:42.600Z,21.03
2018-11-14T15:54:11.851Z,19.23
2018-11-14T15:56:41.411Z,18.67
2018-11-14T15:59:10.658Z,16.17
2018-11-14T16:01:39.978Z,18.00
2018-11-14T16:04:09.271Z,15.20
2018-11-14T16:06:38.541Z,20.10
2018-11-14T16:09:10.525Z,19.63
2018-11-14T16:11:39.977Z,20.00
2018-11-14T16:14:09.229Z,22.30
2018-11-14T16:16:38.693Z,18.23
2018-11-14T16:19:07.961Z,28.03
2018-11-14T16:21:37.248Z,26.60
2018-11-14T16:24:07.109Z,20.53
2018-11-14T16:26:36.380Z,25.00
2018-11-14T16:29:06.053Z,22.03
2018-11-14T16:31:35.444Z,24.17
2018-11-14T16:34:04.694Z,33.20
2018-11-14T16:36:34.101Z,29.50
2018-11-14T16:39:04.337Z,31.23
2018-11-14T16:41:33.878Z,24.87
2018-11-14T16:44:03.402Z,28.00
2018-11-14T16:46:33.022Z,29.13
2018-11-14T16:49:02.286Z,22.00
2018-11-14T16:51:31.539Z,28.47
2018-11-14T16:54:00.818Z,21.67
2018-11-14T16:56:30.427Z,23.37
2018-11-14T16:58:59.728Z,25.40
2018-11-14T17:01:29.881Z,20.73
2018-11-14T17:03:59.155Z,23.73
2018-11-14T17:06:28.557Z,24.60
2018-11-14T17:08:57.838Z,25.37
2018-11-14T17:11:27.161Z,25.03
2018-11-14T17:13:56.451Z,31.10
2018-11-14T17:16:25.860Z,34.33
2018-11-14T17:18:55.105Z,23.90
2018-11-14T17:21:24.395Z,22.50
2018-11-14T17:23:53.896Z,23.13
2018-11-14T17:26:23.137Z,22.17
2018-11-14T17:28:52.605Z,22.83
2018-11-14T17:31:21.918Z,26.70
2018-11-14T17:33:51.193Z,23.73
2018-11-14T17:36:20.455Z,23.20
2018-11-14T17:38:49.721Z,31.13
2018-11-14T17:41:19.035Z,24.10
2018-11-14T17:43:48.263Z,26.43
2018-11-14T17:46:17.918Z,27.87
2018-11-14T17:48:47.904Z,26.47
2018-11-14T17:51:17.153Z,21.07
2018-11-14T17:53:46.428Z,25.70
2018-11-14T17:56:15.686Z,24.80
2018-11-14T17:58:44.934Z,22.90
2018-11-14T18:01:14.466Z,24.60
2018-11-14T18:03:43.725Z,24.40
2018-11-14T18:06:13.273Z,24.93
2018-11-14T18:08:42.603Z,21.60
2018-11-14T18:11:11.899Z,24.47
2018-11-14T18:13:41.194Z,24.83
2018-11-14T18:16:10.548Z,26.83
2018-11-14T18:18:39.805Z,25.50
2018-11-14T18:21:09.062Z,25.70
2018-11-14T18:23:38.497Z,23.90
2018-11-14T18:26:08.043Z,26.00
2018-11-14T18:28:37.281Z,22.83
2018-11-14T18:31:06.842Z,23.80
2018-11-14T18:33:36.118Z,25.90
2018-11-14T18:36:06.169Z,21.90
2018-11-14T18:38:35.858Z,27.27
2018-11-14T18:41:05.185Z,24.60
2018-11-14T18:43:34.445Z,22.43
2018-11-14T18:46:03.766Z,25.50
2018-11-14T18:48:33.054Z,28.93
2018-11-14T18:51:02.933Z,23.33
2018-11-14T18:53:32.722Z,22.83
2018-11-14T18:56:02.000Z,22.60
2018-11-14T18:58:31.470Z,31.20
2018-11-14T19:01:00.979Z,22.80
2018-11-14T19:03:30.330Z,23.10
2018-11-14T19:05:59.578Z,24.90
2018-11-14T19:08:29.036Z,23.90
2018-11-14T19:10:58.402Z,23.27
2018-11-14T19:13:27.662Z,24.67
2018-11-14T19:15:57.352Z,23.60
2018-11-14T19:18:26.739Z,26.10
2018-11-14T19:20:56.021Z,25.83
2018-11-14T19:23:25.301Z,27.30
2018-11-14T19:25:54.564Z,26.97
2018-11-14T19:28:23.963Z,22.13
2018-11-14T19:30:53.354Z,20.97
2018-11-14T19:33:22.826Z,22.67
2018-11-14T19:35:52.102Z,28.00
2018-11-14T19:38:21.645Z,22.50
2018-11-14T19:40:51.137Z,21.93
2018-11-14T19:43:20.691Z,21.33
2018-11-14T19:45:49.941Z,18.10
2018-11-14T19:48:19.234Z,21.57
2018-11-14T19:50:48.529Z,22.27
2018-11-14T19:53:18.689Z,21.77
2018-11-14T19:55:47.932Z,19.70
2018-11-14T19:58:17.181Z,22.03
2018-11-14T20:00:46.926Z,26.67
2018-11-14T20:03:16.201Z,20.97
2018-11-14T20:05:45.468Z,25.93
2018-11-14T20:08:14.793Z,20.43
2018-11-14T20:10:44.051Z,20.40
2018-11-14T20:13:13.288Z,22.37
2018-11-14T20:15:42.593Z,21.80
2018-11-14T20:18:11.849Z,22.53
2018-11-14T20:20:41.097Z,23.23
2018-11-14T20:23:10.645Z,22.70
2018-11-14T20:25:39.981Z,24.00
2018-11-14T20:28:09.191Z,25.30
2018-11-14T20:30:39.466Z,22.60
2018-11-14T20:33:10.271Z,23.70
2018-11-14T20:35:39.541Z,21.93
2018-11-14T20:38:09.200Z,27.63
2018-11-14T20:40:40.109Z,22.97
2018-11-14T20:43:09.417Z,22.33
2018-11-14T20:45:38.944Z,22.10
2018-11-14T20:48:08.228Z,22.50
2018-11-14T20:50:37.465Z,22.47
2018-11-14T20:53:06.810Z,24.70
2018-11-14T20:55:36.974Z,23.90
2018-11-14T20:58:06.687Z,22.87
2018-11-14T21:00:37.302Z,24.50
2018-11-14T21:03:07.361Z,23.80
2018-11-14T21:05:37.151Z,24.03
2018-11-14T21:08:07.261Z,22.13
2018-11-14T21:10:36.537Z,23.17
2018-11-14T21:13:06.508Z,21.07
2018-11-14T21:15:37.229Z,21.70
2018-11-14T21:18:06.887Z,23.70
2018-11-14T21:20:36.169Z,22.30
2018-11-14T21:23:05.658Z,21.10
2018-11-14T21:25:34.893Z,22.67
2018-11-14T21:28:04.189Z,26.13
2018-11-14T21:30:33.741Z,21.97
2018-11-14T21:33:03.013Z,22.03
2018-11-14T21:35:34.004Z,22.30
2018-11-14T21:38:04.817Z,22.00
2018-11-14T21:40:34.057Z,26.97
2018-11-14T21:43:03.344Z,22.70
2018-11-14T21:45:32.649Z,19.97
2018-11-14T21:48:07.458Z,20.73
2018-11-14T21:50:36.821Z,20.57
2018-11-14T21:53:06.123Z,23.13
2018-11-14T21:55:35.382Z,21.40
2018-11-14T21:58:05.039Z,21.63
2018-11-14T22:00:35.882Z,20.73
2018-11-14T22:03:05.745Z,20.87
2018-11-14T22:05:35.485Z,22.47
2018-11-14T22:08:05.514Z,22.83
2018-11-14T22:10:34.972Z,19.97
2018-11-14T22:13:04.279Z,17.50
2018-11-14T22:15:33.594Z,19.33
2018-11-14T22:18:02.839Z,19.30
2018-11-14T22:20:32.257Z,18.90
2018-11-14T22:23:01.508Z,21.80
2018-11-14T22:25:31.273Z,20.33
2018-11-14T22:28:01.759Z,21.37
2018-11-14T22:30:32.618Z,20.47
2018-11-14T22:33:01.871Z,20.97
2018-11-14T22:35:32.130Z,21.60
2018-11-14T22:38:01.443Z,20.20
2018-11-14T22:40:31.665Z,19.80
2018-11-14T22:43:00.927Z,20.30
2018-11-14T22:45:31.512Z,19.40
2018-11-14T22:48:00.772Z,19.73
2018-11-14T22:50:30.037Z,21.43
2018-11-14T22:52:59.705Z,20.53
2018-11-14T22:55:28.977Z,21.13
2018-11-14T22:57:58.213Z,21.47
2018-11-14T23:00:29.498Z,21.33
2018-11-14T23:02:59.959Z,21.47
2018-11-14T23:05:29.497Z,21.67
2018-11-14T23:07:59.407Z,21.13
2018-11-14T23:10:28.893Z,19.53
2018-11-14T23:12:58.132Z,23.80
2018-11-14T23:15:27.773Z,21.57
2018-11-14T23:17:57.020Z,27.30
2018-11-14T23:20:26.265Z,21.67
2018-11-14T23:22:56.041Z,22.60
2018-11-14T23:25:25.613Z,23.97
2018-11-14T23:27:57.137Z,23.63
2018-11-14T23:30:27.312Z,22.83
2018-11-14T23:32:57.510Z,22.50
2018-11-14T23:35:29.188Z,25.67
2018-11-14T23:38:00.105Z,22.93
2018-11-14T23:40:29.985Z,22.13
2018-11-14T23:42:59.294Z,23.03
2018-11-14T23:45:29.103Z,21.87
2018-11-14T23:47:58.405Z,25.47
2018-11-14T23:50:30.909Z,21.10
2018-11-14T23:53:01.784Z,22.50
2018-11-14T23:55:31.966Z,24.37
2018-11-14T23:58:01.578Z,24.70
